sensor_id;sensor_type;location;lat;lon;timestamp;P1;durP1;ratioP1;P2;durP2;ratioP2
11247;SDS011;5681;53.316;13.950;2023-05-14T00:02:08;5.75;;;3.88;;
11247;SDS011;5681;53.316;13.950;2023-05-14T00:04:34;5.72;;;3.97;;
11247;SDS011;5681;53.316;13.950;2023-05-14T00:07:01;6.47;;;4.28;;
11247;SDS011;5681;53.316;13.950;2023-05-14T00:09:27;5.63;;;3.88;;
11247;SDS011;5681;53.316;13.950;2023-05-14T00:11:54;12.70;;;4.65;;
11247;SDS011;5681;53.316;13.950;2023-05-14T00:14:20;7.85;;;4.40;;
11247;SDS011;5681;53.316;13.950;2023-05-14T00:16:48;8.75;;;4.22;;
11247;SDS011;5681;53.316;13.950;2023-05-14T00:19:14;5.97;;;4.20;;
11247;SDS011;5681;53.316;13.950;2023-05-14T00:21:41;7.38;;;4.50;;
11247;SDS011;5681;53.316;13.950;2023-05-14T00:24:07;4.60;;;4.10;;
11247;SDS011;5681;53.316;13.950;2023-05-14T00:26:33;6.57;;;4.15;;
11247;SDS011;5681;53.316;13.950;2023-05-14T00:28:59;6.30;;;3.95;;
11247;SDS011;5681;53.316;13.950;2023-05-14T00:31:26;6.35;;;4.20;;
11247;SDS011;5681;53.316;13.950;2023-05-14T00:33:53;9.35;;;4.45;;
11247;SDS011;5681;53.316;13.950;2023-05-14T00:36:20;9.45;;;4.72;;
11247;SDS011;5681;53.316;13.950;2023-05-14T00:38:46;7.47;;;4.35;;
11247;SDS011;5681;53.316;13.950;2023-05-14T00:41:12;7.70;;;4.75;;
11247;SDS011;5681;53.316;13.950;2023-05-14T00:43:39;6.20;;;4.30;;
11247;SDS011;5681;53.316;13.950;2023-05-14T00:46:05;7.47;;;4.45;;
11247;SDS011;5681;53.316;13.950;2023-05-14T00:48:32;8.80;;;4.47;;
11247;SDS011;5681;53.316;13.950;2023-05-14T00:50:59;6.07;;;4.20;;
11247;SDS011;5681;53.316;13.950;2023-05-14T00:53:26;4.18;;;3.78;;
11247;SDS011;5681;53.316;13.950;2023-05-14T00:55:52;8.25;;;4.30;;
11247;SDS011;5681;53.316;13.950;2023-05-14T00:58:19;6.55;;;4.40;;
11247;SDS011;5681;53.316;13.950;2023-05-14T01:00:45;6.20;;;4.35;;
11247;SDS011;5681;53.316;13.950;2023-05-14T01:03:11;6.20;;;4.60;;
11247;SDS011;5681;53.316;13.950;2023-05-14T01:05:40;4.97;;;3.88;;
11247;SDS011;5681;53.316;13.950;2023-05-14T01:08:15;5.47;;;4.22;;
11247;SDS011;5681;53.316;13.950;2023-05-14T01:10:44;10.02;;;4.88;;
11247;SDS011;5681;53.316;13.950;2023-05-14T01:13:15;7.43;;;4.18;;
11247;SDS011;5681;53.316;13.950;2023-05-14T01:15:45;8.15;;;4.93;;
11247;SDS011;5681;53.316;13.950;2023-05-14T01:18:13;8.82;;;5.07;;
11247;SDS011;5681;53.316;13.950;2023-05-14T01:20:43;7.20;;;4.65;;
11247;SDS011;5681;53.316;13.950;2023-05-14T01:23:10;7.55;;;4.85;;
11247;SDS011;5681;53.316;13.950;2023-05-14T01:25:37;8.93;;;5.20;;
11247;SDS011;5681;53.316;13.950;2023-05-14T01:28:05;8.18;;;4.55;;
11247;SDS011;5681;53.316;13.950;2023-05-14T01:30:34;5.50;;;4.57;;
11247;SDS011;5681;53.316;13.950;2023-05-14T01:33:02;5.00;;;4.32;;
11247;SDS011;5681;53.316;13.950;2023-05-14T01:35:31;8.55;;;5.07;;
11247;SDS011;5681;53.316;13.950;2023-05-14T01:37:58;11.05;;;5.60;;
11247;SDS011;5681;53.316;13.950;2023-05-14T01:40:27;5.47;;;4.88;;
11247;SDS011;5681;53.316;13.950;2023-05-14T01:42:54;7.85;;;5.10;;
11247;SDS011;5681;53.316;13.950;2023-05-14T01:45:20;6.72;;;5.30;;
11247;SDS011;5681;53.316;13.950;2023-05-14T01:47:47;8.90;;;4.68;;
11247;SDS011;5681;53.316;13.950;2023-05-14T01:50:14;8.20;;;5.07;;
11247;SDS011;5681;53.316;13.950;2023-05-14T01:52:40;7.70;;;5.22;;
11247;SDS011;5681;53.316;13.950;2023-05-14T01:55:07;10.32;;;5.50;;
11247;SDS011;5681;53.316;13.950;2023-05-14T01:57:35;12.00;;;5.90;;
11247;SDS011;5681;53.316;13.950;2023-05-14T02:00:01;10.75;;;5.93;;
11247;SDS011;5681;53.316;13.950;2023-05-14T02:02:28;6.07;;;5.25;;
11247;SDS011;5681;53.316;13.950;2023-05-14T02:04:54;5.15;;;4.65;;
11247;SDS011;5681;53.316;13.950;2023-05-14T02:07:21;9.50;;;5.03;;
11247;SDS011;5681;53.316;13.950;2023-05-14T02:09:50;9.50;;;5.40;;
11247;SDS011;5681;53.316;13.950;2023-05-14T02:12:16;6.10;;;5.13;;
11247;SDS011;5681;53.316;13.950;2023-05-14T02:14:44;6.97;;;4.97;;
11247;SDS011;5681;53.316;13.950;2023-05-14T02:17:10;9.60;;;5.18;;
11247;SDS011;5681;53.316;13.950;2023-05-14T02:19:39;10.20;;;5.57;;
11247;SDS011;5681;53.316;13.950;2023-05-14T02:22:06;9.73;;;5.55;;
11247;SDS011;5681;53.316;13.950;2023-05-14T02:24:32;7.82;;;5.55;;
11247;SDS011;5681;53.316;13.950;2023-05-14T02:26:58;10.77;;;5.10;;
11247;SDS011;5681;53.316;13.950;2023-05-14T02:29:25;8.57;;;5.20;;
11247;SDS011;5681;53.316;13.950;2023-05-14T02:31:52;12.95;;;5.78;;
11247;SDS011;5681;53.316;13.950;2023-05-14T02:34:19;7.75;;;5.53;;
11247;SDS011;5681;53.316;13.950;2023-05-14T02:36:45;9.57;;;5.40;;
11247;SDS011;5681;53.316;13.950;2023-05-14T02:39:11;8.88;;;5.40;;
11247;SDS011;5681;53.316;13.950;2023-05-14T02:41:38;6.55;;;5.05;;
11247;SDS011;5681;53.316;13.950;2023-05-14T02:44:04;7.68;;;5.47;;
11247;SDS011;5681;53.316;13.950;2023-05-14T02:46:30;15.38;;;6.18;;
11247;SDS011;5681;53.316;13.950;2023-05-14T02:48:58;8.38;;;5.85;;
11247;SDS011;5681;53.316;13.950;2023-05-14T02:51:25;10.30;;;6.00;;
11247;SDS011;5681;53.316;13.950;2023-05-14T02:53:51;8.85;;;6.00;;
11247;SDS011;5681;53.316;13.950;2023-05-14T02:56:17;8.18;;;5.85;;
11247;SDS011;5681;53.316;13.950;2023-05-14T02:58:44;7.90;;;5.50;;
11247;SDS011;5681;53.316;13.950;2023-05-14T03:01:10;10.40;;;6.22;;
11247;SDS011;5681;53.316;13.950;2023-05-14T03:03:36;7.00;;;5.70;;
11247;SDS011;5681;53.316;13.950;2023-05-14T03:06:04;12.00;;;6.03;;
11247;SDS011;5681;53.316;13.950;2023-05-14T03:08:31;7.10;;;5.68;;
11247;SDS011;5681;53.316;13.950;2023-05-14T03:10:57;8.15;;;5.43;;
11247;SDS011;5681;53.316;13.950;2023-05-14T03:13:23;9.68;;;5.88;;
11247;SDS011;5681;53.316;13.950;2023-05-14T03:15:50;8.93;;;6.10;;
11247;SDS011;5681;53.316;13.950;2023-05-14T03:18:18;8.93;;;5.63;;
11247;SDS011;5681;53.316;13.950;2023-05-14T03:20:45;6.25;;;5.38;;
11247;SDS011;5681;53.316;13.950;2023-05-14T03:23:13;20.23;;;6.03;;
11247;SDS011;5681;53.316;13.950;2023-05-14T03:25:39;8.23;;;5.05;;
11247;SDS011;5681;53.316;13.950;2023-05-14T03:28:06;6.82;;;5.32;;
11247;SDS011;5681;53.316;13.950;2023-05-14T03:30:32;8.23;;;6.13;;
11247;SDS011;5681;53.316;13.950;2023-05-14T03:32:59;6.72;;;5.90;;
11247;SDS011;5681;53.316;13.950;2023-05-14T03:35:25;8.52;;;5.63;;
11247;SDS011;5681;53.316;13.950;2023-05-14T03:37:51;12.05;;;5.80;;
11247;SDS011;5681;53.316;13.950;2023-05-14T03:40:19;7.90;;;5.45;;
11247;SDS011;5681;53.316;13.950;2023-05-14T03:42:48;12.25;;;6.20;;
11247;SDS011;5681;53.316;13.950;2023-05-14T03:45:14;8.38;;;6.03;;
11247;SDS011;5681;53.316;13.950;2023-05-14T03:47:41;10.10;;;6.35;;
11247;SDS011;5681;53.316;13.950;2023-05-14T03:50:07;8.57;;;5.45;;
11247;SDS011;5681;53.316;13.950;2023-05-14T03:52:34;9.77;;;5.35;;
11247;SDS011;5681;53.316;13.950;2023-05-14T03:55:00;6.80;;;5.70;;
11247;SDS011;5681;53.316;13.950;2023-05-14T03:57:31;8.77;;;5.38;;
11247;SDS011;5681;53.316;13.950;2023-05-14T03:59:57;11.45;;;6.00;;
11247;SDS011;5681;53.316;13.950;2023-05-14T04:02:23;10.05;;;5.38;;
11247;SDS011;5681;53.316;13.950;2023-05-14T04:04:50;8.98;;;5.70;;
11247;SDS011;5681;53.316;13.950;2023-05-14T04:07:19;7.18;;;5.68;;
11247;SDS011;5681;53.316;13.950;2023-05-14T04:09:45;8.38;;;6.25;;
11247;SDS011;5681;53.316;13.950;2023-05-14T04:12:12;8.18;;;5.75;;
11247;SDS011;5681;53.316;13.950;2023-05-14T04:14:39;10.32;;;5.53;;
11247;SDS011;5681;53.316;13.950;2023-05-14T04:17:06;8.82;;;5.60;;
11247;SDS011;5681;53.316;13.950;2023-05-14T04:19:32;7.72;;;5.97;;
11247;SDS011;5681;53.316;13.950;2023-05-14T04:21:58;9.20;;;5.65;;
11247;SDS011;5681;53.316;13.950;2023-05-14T04:24:25;7.40;;;5.63;;
11247;SDS011;5681;53.316;13.950;2023-05-14T04:26:51;6.38;;;5.75;;
11247;SDS011;5681;53.316;13.950;2023-05-14T04:29:17;8.32;;;5.97;;
11247;SDS011;5681;53.316;13.950;2023-05-14T04:31:45;8.60;;;5.35;;
11247;SDS011;5681;53.316;13.950;2023-05-14T04:34:14;6.15;;;5.50;;
11247;SDS011;5681;53.316;13.950;2023-05-14T04:36:40;6.07;;;5.47;;
11247;SDS011;5681;53.316;13.950;2023-05-14T04:39:06;8.35;;;5.85;;
11247;SDS011;5681;53.316;13.950;2023-05-14T04:41:33;7.85;;;6.00;;
11247;SDS011;5681;53.316;13.950;2023-05-14T04:44:01;8.95;;;5.63;;
11247;SDS011;5681;53.316;13.950;2023-05-14T04:46:28;6.75;;;5.80;;
11247;SDS011;5681;53.316;13.950;2023-05-14T04:48:56;8.52;;;6.30;;
11247;SDS011;5681;53.316;13.950;2023-05-14T04:51:22;7.25;;;5.85;;
11247;SDS011;5681;53.316;13.950;2023-05-14T04:53:48;9.93;;;5.68;;
11247;SDS011;5681;53.316;13.950;2023-05-14T04:56:18;8.40;;;5.53;;
11247;SDS011;5681;53.316;13.950;2023-05-14T04:58:45;10.57;;;5.82;;
11247;SDS011;5681;53.316;13.950;2023-05-14T05:01:11;8.73;;;5.80;;
11247;SDS011;5681;53.316;13.950;2023-05-14T05:03:38;12.98;;;5.78;;
11247;SDS011;5681;53.316;13.950;2023-05-14T05:06:06;10.57;;;5.88;;
11247;SDS011;5681;53.316;13.950;2023-05-14T05:08:33;11.05;;;6.13;;
11247;SDS011;5681;53.316;13.950;2023-05-14T05:10:59;13.70;;;6.05;;
11247;SDS011;5681;53.316;13.950;2023-05-14T05:13:25;12.85;;;5.72;;
11247;SDS011;5681;53.316;13.950;2023-05-14T05:15:52;8.95;;;5.93;;
11247;SDS011;5681;53.316;13.950;2023-05-14T05:18:18;5.85;;;5.20;;
11247;SDS011;5681;53.316;13.950;2023-05-14T05:20:44;8.60;;;5.78;;
11247;SDS011;5681;53.316;13.950;2023-05-14T05:23:12;9.25;;;5.57;;
11247;SDS011;5681;53.316;13.950;2023-05-14T05:25:38;11.13;;;5.45;;
11247;SDS011;5681;53.316;13.950;2023-05-14T05:28:05;7.93;;;5.90;;
11247;SDS011;5681;53.316;13.950;2023-05-14T05:30:31;12.07;;;7.13;;
11247;SDS011;5681;53.316;13.950;2023-05-14T05:32:57;8.35;;;6.35;;
11247;SDS011;5681;53.316;13.950;2023-05-14T05:35:24;8.25;;;6.90;;
11247;SDS011;5681;53.316;13.950;2023-05-14T05:37:50;7.43;;;6.10;;
11247;SDS011;5681;53.316;13.950;2023-05-14T05:40:18;7.18;;;6.35;;
11247;SDS011;5681;53.316;13.950;2023-05-14T05:42:44;7.53;;;6.07;;
11247;SDS011;5681;53.316;13.950;2023-05-14T05:45:10;9.38;;;6.20;;
11247;SDS011;5681;53.316;13.950;2023-05-14T05:47:37;8.23;;;6.10;;
11247;SDS011;5681;53.316;13.950;2023-05-14T05:50:03;8.70;;;6.28;;
11247;SDS011;5681;53.316;13.950;2023-05-14T05:52:31;11.40;;;6.28;;
11247;SDS011;5681;53.316;13.950;2023-05-14T05:54:57;8.15;;;5.43;;
11247;SDS011;5681;53.316;13.950;2023-05-14T05:57:25;7.95;;;5.80;;
11247;SDS011;5681;53.316;13.950;2023-05-14T05:59:51;10.65;;;6.10;;
11247;SDS011;5681;53.316;13.950;2023-05-14T06:02:18;8.07;;;5.47;;
11247;SDS011;5681;53.316;13.950;2023-05-14T06:04:44;9.52;;;5.70;;
11247;SDS011;5681;53.316;13.950;2023-05-14T06:07:11;5.82;;;5.18;;
11247;SDS011;5681;53.316;13.950;2023-05-14T06:09:37;9.93;;;5.70;;
11247;SDS011;5681;53.316;13.950;2023-05-14T06:12:04;7.95;;;6.57;;
11247;SDS011;5681;53.316;13.950;2023-05-14T06:14:32;10.43;;;6.57;;
11247;SDS011;5681;53.316;13.950;2023-05-14T06:16:58;9.85;;;6.32;;
11247;SDS011;5681;53.316;13.950;2023-05-14T06:19:25;8.98;;;6.35;;
11247;SDS011;5681;53.316;13.950;2023-05-14T06:21:51;10.93;;;6.20;;
11247;SDS011;5681;53.316;13.950;2023-05-14T06:24:17;8.88;;;6.28;;
11247;SDS011;5681;53.316;13.950;2023-05-14T06:26:45;12.43;;;6.78;;
11247;SDS011;5681;53.316;13.950;2023-05-14T06:29:12;7.03;;;5.88;;
11247;SDS011;5681;53.316;13.950;2023-05-14T06:31:40;6.88;;;5.57;;
11247;SDS011;5681;53.316;13.950;2023-05-14T06:34:06;7.95;;;5.38;;
11247;SDS011;5681;53.316;13.950;2023-05-14T06:36:33;7.20;;;5.68;;
11247;SDS011;5681;53.316;13.950;2023-05-14T06:38:59;7.57;;;6.05;;
11247;SDS011;5681;53.316;13.950;2023-05-14T06:41:25;10.35;;;5.70;;
11247;SDS011;5681;53.316;13.950;2023-05-14T06:43:53;10.50;;;5.40;;
11247;SDS011;5681;53.316;13.950;2023-05-14T06:46:20;8.75;;;5.35;;
11247;SDS011;5681;53.316;13.950;2023-05-14T06:48:47;10.05;;;5.60;;
11247;SDS011;5681;53.316;13.950;2023-05-14T06:51:14;7.60;;;4.80;;
11247;SDS011;5681;53.316;13.950;2023-05-14T06:53:40;6.57;;;4.80;;
11247;SDS011;5681;53.316;13.950;2023-05-14T06:56:07;7.45;;;4.97;;
11247;SDS011;5681;53.316;13.950;2023-05-14T06:58:33;8.60;;;4.85;;
11247;SDS011;5681;53.316;13.950;2023-05-14T07:00:59;6.85;;;5.25;;
11247;SDS011;5681;53.316;13.950;2023-05-14T07:03:26;9.00;;;4.88;;
11247;SDS011;5681;53.316;13.950;2023-05-14T07:05:54;5.65;;;4.60;;
11247;SDS011;5681;53.316;13.950;2023-05-14T07:08:20;11.88;;;5.05;;
11247;SDS011;5681;53.316;13.950;2023-05-14T07:10:47;7.15;;;4.80;;
11247;SDS011;5681;53.316;13.950;2023-05-14T07:13:13;6.75;;;4.85;;
11247;SDS011;5681;53.316;13.950;2023-05-14T07:15:39;11.45;;;4.25;;
11247;SDS011;5681;53.316;13.950;2023-05-14T07:18:06;9.10;;;4.63;;
11247;SDS011;5681;53.316;13.950;2023-05-14T07:20:32;8.63;;;4.70;;
11247;SDS011;5681;53.316;13.950;2023-05-14T07:23:00;6.32;;;4.50;;
11247;SDS011;5681;53.316;13.950;2023-05-14T07:25:26;5.68;;;4.70;;
11247;SDS011;5681;53.316;13.950;2023-05-14T07:27:53;6.95;;;4.72;;
11247;SDS011;5681;53.316;13.950;2023-05-14T07:30:19;7.45;;;4.78;;
11247;SDS011;5681;53.316;13.950;2023-05-14T07:32:46;7.55;;;4.32;;
11247;SDS011;5681;53.316;13.950;2023-05-14T07:35:12;4.82;;;4.30;;
11247;SDS011;5681;53.316;13.950;2023-05-14T07:37:38;5.55;;;4.30;;
11247;SDS011;5681;53.316;13.950;2023-05-14T07:40:07;5.90;;;4.35;;
11247;SDS011;5681;53.316;13.950;2023-05-14T07:42:34;7.45;;;4.50;;
11247;SDS011;5681;53.316;13.950;2023-05-14T07:45:01;8.18;;;4.20;;
11247;SDS011;5681;53.316;13.950;2023-05-14T07:47:28;9.52;;;4.90;;
11247;SDS011;5681;53.316;13.950;2023-05-14T07:49:54;4.72;;;4.10;;
11247;SDS011;5681;53.316;13.950;2023-05-14T07:52:21;9.65;;;4.50;;
11247;SDS011;5681;53.316;13.950;2023-05-14T07:54:48;7.63;;;4.10;;
11247;SDS011;5681;53.316;13.950;2023-05-14T07:57:16;6.25;;;4.47;;
11247;SDS011;5681;53.316;13.950;2023-05-14T07:59:42;9.45;;;4.50;;
11247;SDS011;5681;53.316;13.950;2023-05-14T08:02:09;7.35;;;4.18;;
11247;SDS011;5681;53.316;13.950;2023-05-14T08:04:36;6.63;;;3.85;;
11247;SDS011;5681;53.316;13.950;2023-05-14T08:07:03;6.72;;;3.92;;
11247;SDS011;5681;53.316;13.950;2023-05-14T08:09:29;5.20;;;3.95;;
11247;SDS011;5681;53.316;13.950;2023-05-14T08:11:56;8.65;;;4.25;;
11247;SDS011;5681;53.316;13.950;2023-05-14T08:14:23;8.95;;;3.90;;
11247;SDS011;5681;53.316;13.950;2023-05-14T08:16:50;6.45;;;3.90;;
11247;SDS011;5681;53.316;13.950;2023-05-14T08:19:17;9.20;;;4.10;;
11247;SDS011;5681;53.316;13.950;2023-05-14T08:21:43;12.63;;;4.15;;
11247;SDS011;5681;53.316;13.950;2023-05-14T08:24:10;4.07;;;3.55;;
11247;SDS011;5681;53.316;13.950;2023-05-14T08:26:36;6.30;;;4.07;;
11247;SDS011;5681;53.316;13.950;2023-05-14T08:29:03;9.68;;;4.10;;
11247;SDS011;5681;53.316;13.950;2023-05-14T08:31:31;7.25;;;3.85;;
11247;SDS011;5681;53.316;13.950;2023-05-14T08:33:57;9.30;;;4.00;;
11247;SDS011;5681;53.316;13.950;2023-05-14T08:36:23;7.47;;;3.53;;
11247;SDS011;5681;53.316;13.950;2023-05-14T08:38:50;5.57;;;3.42;;
11247;SDS011;5681;53.316;13.950;2023-05-14T08:41:16;11.63;;;4.45;;
11247;SDS011;5681;53.316;13.950;2023-05-14T08:43:43;5.75;;;3.70;;
11247;SDS011;5681;53.316;13.950;2023-05-14T08:46:11;9.88;;;3.85;;
11247;SDS011;5681;53.316;13.950;2023-05-14T08:48:41;8.48;;;3.80;;
11247;SDS011;5681;53.316;13.950;2023-05-14T08:51:08;6.57;;;3.90;;
11247;SDS011;5681;53.316;13.950;2023-05-14T08:53:34;7.75;;;3.42;;
11247;SDS011;5681;53.316;13.950;2023-05-14T08:56:02;9.95;;;3.92;;
11247;SDS011;5681;53.316;13.950;2023-05-14T08:58:28;7.40;;;3.25;;
11247;SDS011;5681;53.316;13.950;2023-05-14T09:00:55;8.90;;;3.83;;
11247;SDS011;5681;53.316;13.950;2023-05-14T09:03:21;7.60;;;3.70;;
11247;SDS011;5681;53.316;13.950;2023-05-14T09:05:50;6.28;;;3.03;;
11247;SDS011;5681;53.316;13.950;2023-05-14T09:08:17;5.88;;;3.38;;
11247;SDS011;5681;53.316;13.950;2023-05-14T09:10:43;5.68;;;3.30;;
11247;SDS011;5681;53.316;13.950;2023-05-14T09:13:10;5.65;;;3.70;;
11247;SDS011;5681;53.316;13.950;2023-05-14T09:15:36;10.20;;;3.80;;
11247;SDS011;5681;53.316;13.950;2023-05-14T09:18:05;8.68;;;3.78;;
11247;SDS011;5681;53.316;13.950;2023-05-14T09:20:32;7.32;;;3.80;;
11247;SDS011;5681;53.316;13.950;2023-05-14T09:22:59;8.82;;;3.65;;
11247;SDS011;5681;53.316;13.950;2023-05-14T09:25:26;7.00;;;3.83;;
11247;SDS011;5681;53.316;13.950;2023-05-14T09:27:53;10.50;;;4.53;;
11247;SDS011;5681;53.316;13.950;2023-05-14T09:30:19;10.48;;;5.35;;
11247;SDS011;5681;53.316;13.950;2023-05-14T09:32:45;9.75;;;3.88;;
11247;SDS011;5681;53.316;13.950;2023-05-14T09:35:19;11.50;;;3.97;;
11247;SDS011;5681;53.316;13.950;2023-05-14T09:37:46;8.70;;;6.18;;
11247;SDS011;5681;53.316;13.950;2023-05-14T09:40:16;6.10;;;3.88;;
11247;SDS011;5681;53.316;13.950;2023-05-14T09:42:43;7.18;;;3.83;;
11247;SDS011;5681;53.316;13.950;2023-05-14T09:45:10;12.15;;;3.72;;
11247;SDS011;5681;53.316;13.950;2023-05-14T09:47:37;8.02;;;3.45;;
11247;SDS011;5681;53.316;13.950;2023-05-14T09:50:04;8.68;;;3.58;;
11247;SDS011;5681;53.316;13.950;2023-05-14T09:52:31;4.38;;;3.50;;
11247;SDS011;5681;53.316;13.950;2023-05-14T09:54:57;13.25;;;2.95;;
11247;SDS011;5681;53.316;13.950;2023-05-14T09:57:26;6.88;;;3.22;;
11247;SDS011;5681;53.316;13.950;2023-05-14T09:59:53;7.38;;;3.20;;
11247;SDS011;5681;53.316;13.950;2023-05-14T10:02:23;10.30;;;3.60;;
11247;SDS011;5681;53.316;13.950;2023-05-14T10:04:51;6.50;;;3.63;;
11247;SDS011;5681;53.316;13.950;2023-05-14T10:07:21;9.68;;;3.60;;
11247;SDS011;5681;53.316;13.950;2023-05-14T10:09:48;5.88;;;3.13;;
11247;SDS011;5681;53.316;13.950;2023-05-14T10:12:17;8.45;;;3.28;;
11247;SDS011;5681;53.316;13.950;2023-05-14T10:14:49;10.13;;;3.45;;
11247;SDS011;5681;53.316;13.950;2023-05-14T10:17:17;7.93;;;3.00;;
11247;SDS011;5681;53.316;13.950;2023-05-14T10:19:45;7.38;;;3.30;;
11247;SDS011;5681;53.316;13.950;2023-05-14T10:22:13;6.60;;;2.92;;
11247;SDS011;5681;53.316;13.950;2023-05-14T10:24:40;6.93;;;2.80;;
11247;SDS011;5681;53.316;13.950;2023-05-14T10:27:06;4.85;;;2.70;;
11247;SDS011;5681;53.316;13.950;2023-05-14T10:29:33;7.82;;;2.95;;
11247;SDS011;5681;53.316;13.950;2023-05-14T10:32:05;8.80;;;3.00;;
11247;SDS011;5681;53.316;13.950;2023-05-14T10:34:33;8.82;;;3.10;;
11247;SDS011;5681;53.316;13.950;2023-05-14T10:37:02;8.18;;;3.50;;
11247;SDS011;5681;53.316;13.950;2023-05-14T10:39:42;7.60;;;3.15;;
11247;SDS011;5681;53.316;13.950;2023-05-14T10:42:10;6.90;;;3.15;;
11247;SDS011;5681;53.316;13.950;2023-05-14T10:44:39;10.68;;;3.22;;
11247;SDS011;5681;53.316;13.950;2023-05-14T10:47:09;7.40;;;3.20;;
11247;SDS011;5681;53.316;13.950;2023-05-14T10:49:36;7.90;;;3.20;;
11247;SDS011;5681;53.316;13.950;2023-05-14T10:52:02;5.05;;;2.72;;
11247;SDS011;5681;53.316;13.950;2023-05-14T10:54:29;5.97;;;3.33;;
11247;SDS011;5681;53.316;13.950;2023-05-14T10:56:57;7.20;;;3.33;;
11247;SDS011;5681;53.316;13.950;2023-05-14T10:59:25;9.40;;;3.80;;
11247;SDS011;5681;53.316;13.950;2023-05-14T11:01:52;5.65;;;2.92;;
11247;SDS011;5681;53.316;13.950;2023-05-14T11:04:20;5.50;;;3.17;;
11247;SDS011;5681;53.316;13.950;2023-05-14T11:06:48;6.88;;;3.35;;
11247;SDS011;5681;53.316;13.950;2023-05-14T11:09:16;5.40;;;3.50;;
11247;SDS011;5681;53.316;13.950;2023-05-14T11:11:46;6.68;;;3.15;;
11247;SDS011;5681;53.316;13.950;2023-05-14T11:14:12;7.90;;;3.33;;
11247;SDS011;5681;53.316;13.950;2023-05-14T11:16:38;7.70;;;3.38;;
11247;SDS011;5681;53.316;13.950;2023-05-14T11:19:05;8.93;;;3.53;;
11247;SDS011;5681;53.316;13.950;2023-05-14T11:21:33;5.55;;;3.28;;
11247;SDS011;5681;53.316;13.950;2023-05-14T11:23:59;4.43;;;3.30;;
11247;SDS011;5681;53.316;13.950;2023-05-14T11:26:27;9.07;;;3.55;;
11247;SDS011;5681;53.316;13.950;2023-05-14T11:28:54;7.80;;;3.42;;
11247;SDS011;5681;53.316;13.950;2023-05-14T11:31:20;9.23;;;2.88;;
11247;SDS011;5681;53.316;13.950;2023-05-14T11:33:48;11.10;;;3.20;;
11247;SDS011;5681;53.316;13.950;2023-05-14T11:36:14;8.32;;;3.40;;
11247;SDS011;5681;53.316;13.950;2023-05-14T11:38:48;6.50;;;2.97;;
11247;SDS011;5681;53.316;13.950;2023-05-14T11:41:16;4.45;;;3.10;;
11247;SDS011;5681;53.316;13.950;2023-05-14T11:43:44;6.90;;;3.38;;
11247;SDS011;5681;53.316;13.950;2023-05-14T11:46:15;7.28;;;3.33;;
11247;SDS011;5681;53.316;13.950;2023-05-14T11:48:41;8.52;;;3.42;;
11247;SDS011;5681;53.316;13.950;2023-05-14T11:51:08;10.82;;;3.22;;
11247;SDS011;5681;53.316;13.950;2023-05-14T11:53:34;6.35;;;2.97;;
11247;SDS011;5681;53.316;13.950;2023-05-14T11:56:02;8.98;;;3.20;;
11247;SDS011;5681;53.316;13.950;2023-05-14T11:58:30;7.32;;;2.85;;
11247;SDS011;5681;53.316;13.950;2023-05-14T12:00:57;7.25;;;3.42;;
11247;SDS011;5681;53.316;13.950;2023-05-14T12:03:23;8.40;;;2.78;;
11247;SDS011;5681;53.316;13.950;2023-05-14T12:05:54;7.93;;;3.22;;
11247;SDS011;5681;53.316;13.950;2023-05-14T12:08:21;11.13;;;2.97;;
11247;SDS011;5681;53.316;13.950;2023-05-14T12:10:48;12.40;;;3.72;;
11247;SDS011;5681;53.316;13.950;2023-05-14T12:13:15;10.70;;;3.33;;
11247;SDS011;5681;53.316;13.950;2023-05-14T12:15:45;6.85;;;3.10;;
11247;SDS011;5681;53.316;13.950;2023-05-14T12:18:12;5.22;;;3.30;;
11247;SDS011;5681;53.316;13.950;2023-05-14T12:20:39;9.45;;;3.30;;
11247;SDS011;5681;53.316;13.950;2023-05-14T12:23:08;6.28;;;3.40;;
11247;SDS011;5681;53.316;13.950;2023-05-14T12:25:36;6.88;;;3.45;;
11247;SDS011;5681;53.316;13.950;2023-05-14T12:28:12;7.20;;;3.15;;
11247;SDS011;5681;53.316;13.950;2023-05-14T12:30:40;8.23;;;3.33;;
11247;SDS011;5681;53.316;13.950;2023-05-14T12:33:06;6.85;;;3.42;;
11247;SDS011;5681;53.316;13.950;2023-05-14T12:35:33;6.95;;;2.65;;
11247;SDS011;5681;53.316;13.950;2023-05-14T12:38:00;4.00;;;2.45;;
11247;SDS011;5681;53.316;13.950;2023-05-14T12:40:27;5.38;;;2.38;;
11247;SDS011;5681;53.316;13.950;2023-05-14T12:42:53;7.35;;;2.38;;
11247;SDS011;5681;53.316;13.950;2023-05-14T12:45:19;7.35;;;2.22;;
11247;SDS011;5681;53.316;13.950;2023-05-14T12:47:47;3.75;;;2.45;;
11247;SDS011;5681;53.316;13.950;2023-05-14T12:50:13;4.63;;;2.00;;
11247;SDS011;5681;53.316;13.950;2023-05-14T12:52:40;10.25;;;2.50;;
11247;SDS011;5681;53.316;13.950;2023-05-14T12:55:07;6.22;;;2.50;;
11247;SDS011;5681;53.316;13.950;2023-05-14T12:57:33;3.42;;;2.40;;
11247;SDS011;5681;53.316;13.950;2023-05-14T13:00:00;3.13;;;2.20;;
11247;SDS011;5681;53.316;13.950;2023-05-14T13:02:30;3.78;;;2.15;;
11247;SDS011;5681;53.316;13.950;2023-05-14T13:04:58;4.22;;;2.70;;
11247;SDS011;5681;53.316;13.950;2023-05-14T13:07:26;3.05;;;2.50;;
11247;SDS011;5681;53.316;13.950;2023-05-14T13:09:53;6.68;;;2.58;;
11247;SDS011;5681;53.316;13.950;2023-05-14T13:12:20;4.53;;;2.40;;
11247;SDS011;5681;53.316;13.950;2023-05-14T13:14:48;6.40;;;2.78;;
11247;SDS011;5681;53.316;13.950;2023-05-14T13:17:14;3.80;;;2.60;;
11247;SDS011;5681;53.316;13.950;2023-05-14T13:19:41;6.78;;;2.70;;
11247;SDS011;5681;53.316;13.950;2023-05-14T13:22:08;5.13;;;2.80;;
11247;SDS011;5681;53.316;13.950;2023-05-14T13:24:35;6.10;;;2.60;;
11247;SDS011;5681;53.316;13.950;2023-05-14T13:27:01;5.65;;;2.80;;
11247;SDS011;5681;53.316;13.950;2023-05-14T13:29:27;4.75;;;2.85;;
11247;SDS011;5681;53.316;13.950;2023-05-14T13:31:55;5.63;;;2.42;;
11247;SDS011;5681;53.316;13.950;2023-05-14T13:34:21;5.47;;;3.22;;
11247;SDS011;5681;53.316;13.950;2023-05-14T13:36:48;6.97;;;3.03;;
11247;SDS011;5681;53.316;13.950;2023-05-14T13:39:16;6.75;;;2.55;;
11247;SDS011;5681;53.316;13.950;2023-05-14T13:41:46;4.72;;;2.90;;
11247;SDS011;5681;53.316;13.950;2023-05-14T13:44:14;6.13;;;3.00;;
11247;SDS011;5681;53.316;13.950;2023-05-14T13:46:41;6.65;;;3.05;;
11247;SDS011;5681;53.316;13.950;2023-05-14T13:49:07;7.85;;;2.95;;
11247;SDS011;5681;53.316;13.950;2023-05-14T13:51:33;7.50;;;3.45;;
11247;SDS011;5681;53.316;13.950;2023-05-14T13:54:00;5.95;;;2.70;;
11247;SDS011;5681;53.316;13.950;2023-05-14T13:56:27;5.03;;;2.75;;
11247;SDS011;5681;53.316;13.950;2023-05-14T13:58:54;9.18;;;3.40;;
11247;SDS011;5681;53.316;13.950;2023-05-14T14:01:20;4.35;;;2.95;;
11247;SDS011;5681;53.316;13.950;2023-05-14T14:03:47;6.45;;;3.00;;
11247;SDS011;5681;53.316;13.950;2023-05-14T14:06:13;7.32;;;3.60;;
11247;SDS011;5681;53.316;13.950;2023-05-14T14:08:39;7.15;;;3.15;;
11247;SDS011;5681;53.316;13.950;2023-05-14T14:11:06;5.38;;;3.20;;
11247;SDS011;5681;53.316;13.950;2023-05-14T14:13:33;5.65;;;3.20;;
11247;SDS011;5681;53.316;13.950;2023-05-14T14:16:01;4.45;;;3.28;;
11247;SDS011;5681;53.316;13.950;2023-05-14T14:18:28;4.45;;;2.95;;
11247;SDS011;5681;53.316;13.950;2023-05-14T14:20:54;5.47;;;3.50;;
11247;SDS011;5681;53.316;13.950;2023-05-14T14:23:21;8.75;;;4.03;;
11247;SDS011;5681;53.316;13.950;2023-05-14T14:25:47;9.93;;;3.63;;
11247;SDS011;5681;53.316;13.950;2023-05-14T14:28:13;13.77;;;3.58;;
11247;SDS011;5681;53.316;13.950;2023-05-14T14:30:41;5.15;;;3.40;;
11247;SDS011;5681;53.316;13.950;2023-05-14T14:33:08;8.77;;;3.28;;
11247;SDS011;5681;53.316;13.950;2023-05-14T14:35:35;9.13;;;3.35;;
11247;SDS011;5681;53.316;13.950;2023-05-14T14:38:04;9.77;;;3.17;;
11247;SDS011;5681;53.316;13.950;2023-05-14T14:40:34;5.35;;;2.83;;
11247;SDS011;5681;53.316;13.950;2023-05-14T14:43:00;7.63;;;2.60;;
11247;SDS011;5681;53.316;13.950;2023-05-14T14:45:26;7.07;;;2.85;;